createdAt,value
2018-03-22T00:00:31.833Z,22.87
2018-03-22T00:01:37.144Z,22.87
2018-03-22T00:02:42.976Z,22.30
2018-03-22T00:03:48.478Z,21.67
2018-03-22T00:04:53.954Z,27.30
2018-03-22T00:06:00.113Z,60.15
2018-03-22T00:07:06.029Z,30.73
2018-03-22T00:08:12.204Z,25.73
2018-03-22T00:09:18.176Z,23.70
2018-03-22T00:10:23.594Z,22.62
2018-03-22T00:11:29.886Z,22.75
2018-03-22T00:12:35.836Z,21.92
2018-03-22T00:13:40.920Z,21.83
2018-03-22T00:14:47.361Z,20.55
2018-03-22T00:15:54.194Z,21.90
2018-03-22T00:16:59.456Z,21.45
2018-03-22T00:18:05.469Z,21.92
2018-03-22T00:19:12.299Z,21.85
2018-03-22T00:20:17.666Z,21.23
2018-03-22T00:21:23.252Z,20.27
2018-03-22T00:22:36.939Z,22.10
2018-03-22T00:23:42.052Z,22.00
2018-03-22T00:24:47.278Z,19.73
2018-03-22T00:25:52.453Z,45.90
2018-03-22T00:26:58.252Z,37.05
2018-03-22T00:28:03.823Z,23.05
2018-03-22T00:29:10.605Z,22.08
2018-03-22T00:30:16.843Z,20.90
2018-03-22T00:31:23.015Z,20.77
2018-03-22T00:32:28.915Z,21.70
2018-03-22T00:33:35.220Z,21.63
2018-03-22T00:34:40.951Z,21.40
2018-03-22T00:35:46.279Z,19.77
2018-03-22T00:36:51.641Z,21.08
2018-03-22T00:37:57.178Z,21.40
2018-03-22T00:39:02.309Z,20.50
2018-03-22T00:40:08.543Z,21.02
2018-03-22T00:41:14.430Z,20.40
2018-03-22T00:42:19.694Z,20.42
2018-03-22T00:43:25.825Z,21.25
2018-03-22T00:44:32.287Z,20.60
2018-03-22T00:45:38.622Z,20.83
2018-03-22T00:46:44.652Z,20.80
2018-03-22T00:47:49.985Z,21.02
2018-03-22T00:48:55.333Z,20.77
2018-03-22T00:50:00.673Z,19.77
2018-03-22T00:51:07.195Z,21.50
2018-03-22T00:52:14.086Z,20.75
2018-03-22T00:53:19.346Z,20.60
2018-03-22T00:54:25.690Z,19.25
2018-03-22T00:55:32.931Z,20.42
2018-03-22T00:56:38.935Z,21.00
2018-03-22T00:57:45.498Z,20.23
2018-03-22T00:58:50.597Z,20.98
2018-03-22T00:59:56.137Z,19.62
2018-03-22T01:01:02.195Z,19.60
2018-03-22T01:02:09.391Z,20.85
2018-03-22T01:03:14.787Z,20.27
2018-03-22T01:04:20.745Z,20.92
2018-03-22T01:05:26.802Z,20.70
2018-03-22T01:06:32.587Z,18.87
2018-03-22T01:07:37.968Z,19.60
2018-03-22T01:08:44.025Z,20.65
2018-03-22T01:09:49.427Z,20.05
2018-03-22T01:12:14.431Z,19.48
2018-03-22T01:13:19.501Z,21.52
2018-03-22T01:14:24.635Z,23.20
2018-03-22T01:15:29.659Z,19.98
2018-03-22T01:16:34.611Z,19.80
2018-03-22T01:17:40.003Z,20.13
2018-03-22T01:18:45.642Z,19.12
2018-03-22T01:19:53.270Z,19.83
2018-03-22T01:20:59.275Z,19.27
2018-03-22T01:22:09.021Z,20.15
2018-03-22T01:23:15.865Z,20.08
2018-03-22T01:24:23.308Z,19.48
2018-03-22T01:25:30.197Z,19.57
2018-03-22T01:26:39.707Z,20.73
2018-03-22T01:27:45.072Z,19.55
2018-03-22T01:28:50.136Z,19.80
2018-03-22T01:29:56.531Z,20.52
2018-03-22T01:31:07.023Z,20.27
2018-03-22T01:32:13.593Z,19.52
2018-03-22T01:33:19.253Z,20.58
2018-03-22T01:34:24.656Z,20.55
2018-03-22T01:35:29.361Z,19.70
2018-03-22T01:36:34.911Z,19.95
2018-03-22T01:37:39.629Z,20.42
2018-03-22T01:38:44.430Z,19.00
2018-03-22T01:39:49.149Z,19.43
2018-03-22T01:40:54.489Z,19.17
2018-03-22T01:41:59.909Z,19.80
2018-03-22T01:43:04.873Z,20.15
2018-03-22T01:44:10.220Z,19.85
2018-03-22T01:45:15.024Z,20.30
2018-03-22T01:46:20.116Z,22.00
2018-03-22T01:47:25.204Z,21.20
2018-03-22T01:48:30.636Z,21.87
2018-03-22T01:49:36.887Z,19.70
2018-03-22T01:50:42.382Z,19.90
2018-03-22T01:51:47.165Z,19.65
2018-03-22T01:53:00.579Z,20.45
2018-03-22T01:54:05.493Z,21.75
2018-03-22T01:55:10.925Z,19.90
2018-03-22T01:56:16.688Z,21.52
2018-03-22T01:57:22.029Z,20.40
2018-03-22T01:58:26.788Z,20.87
2018-03-22T01:59:31.550Z,20.10
2018-03-22T02:00:36.365Z,20.45
2018-03-22T02:01:41.146Z,19.63
2018-03-22T02:02:46.156Z,20.50
2018-03-22T02:03:51.165Z,20.30
2018-03-22T02:04:56.060Z,20.00
2018-03-22T02:06:01.320Z,20.33
2018-03-22T02:07:06.399Z,19.37
2018-03-22T02:08:12.494Z,20.58
2018-03-22T02:09:17.299Z,19.75
2018-03-22T02:10:22.152Z,20.42
2018-03-22T02:11:26.842Z,19.95
2018-03-22T02:12:32.135Z,19.73
2018-03-22T02:13:38.583Z,20.20
2018-03-22T02:14:43.833Z,19.67
2018-03-22T02:15:48.622Z,19.52
2018-03-22T02:16:54.154Z,20.20
2018-03-22T02:17:59.795Z,19.62
2018-03-22T02:19:05.353Z,19.10
2018-03-22T02:20:09.807Z,19.77
2018-03-22T02:21:14.489Z,20.67
2018-03-22T02:22:19.208Z,19.33
2018-03-22T02:23:24.040Z,20.02
2018-03-22T02:24:28.861Z,19.10
2018-03-22T02:25:33.266Z,18.70
2018-03-22T02:26:37.813Z,20.27
2018-03-22T02:27:42.867Z,19.50
2018-03-22T02:28:48.293Z,18.80
2018-03-22T02:29:54.070Z,19.35
2018-03-22T02:30:58.727Z,19.83
2018-03-22T02:32:03.340Z,19.12
2018-03-22T02:33:07.989Z,19.52
2018-03-22T02:34:13.479Z,20.05
2018-03-22T02:35:17.980Z,21.10
2018-03-22T02:36:22.673Z,19.50
2018-03-22T02:37:27.320Z,19.20
2018-03-22T02:38:31.850Z,20.23
2018-03-22T02:39:36.428Z,20.23
2018-03-22T02:40:41.224Z,20.00
2018-03-22T02:41:45.761Z,19.10
2018-03-22T02:42:50.584Z,19.12
2018-03-22T02:43:55.776Z,19.45
2018-03-22T02:45:00.296Z,19.50
2018-03-22T02:46:09.600Z,19.73
2018-03-22T02:47:15.012Z,19.23
2018-03-22T02:48:19.502Z,21.95
2018-03-22T02:49:24.102Z,36.55
2018-03-22T02:50:28.569Z,22.90
2018-03-22T02:51:34.017Z,21.23
2018-03-22T02:52:38.530Z,20.20
2018-03-22T02:53:43.091Z,22.33
2018-03-22T02:54:47.450Z,19.70
2018-03-22T02:55:51.869Z,21.37
2018-03-22T02:56:56.584Z,20.45
2018-03-22T02:58:01.050Z,20.40
2018-03-22T02:59:05.608Z,19.42
2018-03-22T03:00:10.004Z,20.55
2018-03-22T03:01:14.866Z,21.50
2018-03-22T03:02:19.247Z,19.60
2018-03-22T03:03:23.854Z,21.45
2018-03-22T03:04:28.256Z,18.75
2018-03-22T03:05:32.691Z,20.40
2018-03-22T03:06:37.123Z,19.00
2018-03-22T03:07:41.538Z,18.40
2018-03-22T03:08:46.014Z,20.25
2018-03-22T03:09:50.407Z,19.87
2018-03-22T03:10:54.772Z,20.52
2018-03-22T03:11:59.304Z,19.57
2018-03-22T03:13:03.741Z,18.15
2018-03-22T03:14:08.371Z,19.15
2018-03-22T03:15:12.689Z,18.92
2018-03-22T03:16:17.062Z,19.02
2018-03-22T03:17:21.455Z,19.92
2018-03-22T03:18:26.581Z,19.40
2018-03-22T03:19:31.676Z,18.60
2018-03-22T03:20:36.052Z,19.02
2018-03-22T03:21:40.460Z,20.10
2018-03-22T03:22:45.060Z,21.55
2018-03-22T03:23:49.432Z,20.75
2018-03-22T03:24:53.788Z,23.00
2018-03-22T03:25:58.223Z,20.62
2018-03-22T03:27:02.605Z,21.57
2018-03-22T03:28:07.068Z,21.20
2018-03-22T03:29:13.128Z,22.33
2018-03-22T03:30:18.622Z,20.50
2018-03-22T03:31:23.209Z,20.30
2018-03-22T03:32:27.626Z,20.37
2018-03-22T03:33:32.030Z,19.37
2018-03-22T03:34:36.368Z,19.10
2018-03-22T03:35:40.791Z,23.10
2018-03-22T03:36:45.162Z,33.53
2018-03-22T03:37:49.472Z,21.95
2018-03-22T03:38:53.920Z,19.40
2018-03-22T03:39:58.376Z,20.77
2018-03-22T03:41:02.709Z,23.48
2018-03-22T03:42:07.436Z,19.03
2018-03-22T03:43:11.788Z,19.00
2018-03-22T03:44:16.960Z,20.40
2018-03-22T03:45:21.298Z,19.37
2018-03-22T03:46:26.121Z,22.00
2018-03-22T03:47:30.504Z,19.77
2018-03-22T03:48:34.952Z,21.35
2018-03-22T03:49:39.390Z,20.85
2018-03-22T03:50:44.454Z,21.60
2018-03-22T03:51:49.131Z,20.20
2018-03-22T03:52:53.527Z,22.33
2018-03-22T03:53:58.076Z,22.15
2018-03-22T03:55:02.557Z,20.88
2018-03-22T03:56:07.032Z,18.70
2018-03-22T03:57:12.355Z,20.88
2018-03-22T03:58:17.016Z,18.65
2018-03-22T03:59:22.431Z,19.30
2018-03-22T04:00:27.900Z,18.80
2018-03-22T04:01:32.726Z,19.17
2018-03-22T04:02:37.312Z,19.27
2018-03-22T04:03:41.723Z,18.52
2018-03-22T04:04:46.102Z,18.40
2018-03-22T04:05:51.567Z,18.80
2018-03-22T04:06:55.914Z,19.10
2018-03-22T04:08:01.486Z,18.85
2018-03-22T04:09:06.789Z,19.62
2018-03-22T04:10:11.165Z,19.10
2018-03-22T04:11:17.712Z,19.25
2018-03-22T04:12:22.229Z,18.92
2018-03-22T04:13:26.637Z,18.85
2018-03-22T04:14:31.075Z,18.83
2018-03-22T04:15:35.429Z,18.65
2018-03-22T04:16:40.733Z,20.40
2018-03-22T04:17:45.304Z,18.77
2018-03-22T04:18:49.728Z,18.30
2018-03-22T04:19:54.375Z,19.67
2018-03-22T04:20:58.928Z,18.42
2018-03-22T04:22:03.349Z,18.95
2018-03-22T04:23:07.854Z,19.08
2018-03-22T04:24:12.226Z,19.90
2018-03-22T04:25:16.627Z,19.98
2018-03-22T04:26:21.204Z,19.98
2018-03-22T04:27:25.521Z,18.55
2018-03-22T04:28:30.336Z,19.30
2018-03-22T04:29:34.707Z,19.77
2018-03-22T04:30:39.796Z,18.55
2018-03-22T04:31:44.253Z,18.98
2018-03-22T04:32:49.030Z,19.58
2018-03-22T04:33:53.529Z,19.50
2018-03-22T04:34:58.014Z,18.70
2018-03-22T04:36:02.526Z,18.75
2018-03-22T04:37:07.367Z,19.20
2018-03-22T04:38:12.583Z,19.27
2018-03-22T04:39:17.074Z,19.60
2018-03-22T04:40:21.475Z,18.90
2018-03-22T04:41:26.070Z,18.77
2018-03-22T04:42:31.366Z,19.62
2018-03-22T04:43:37.384Z,20.30
2018-03-22T04:44:41.815Z,19.00
2018-03-22T04:45:46.225Z,20.33
2018-03-22T04:46:50.826Z,19.45
2018-03-22T04:47:55.459Z,19.75
2018-03-22T04:48:59.729Z,20.15
2018-03-22T04:50:04.240Z,21.23
2018-03-22T04:51:09.649Z,20.20
2018-03-22T04:52:14.997Z,19.75
2018-03-22T04:53:19.680Z,20.17
2018-03-22T04:54:24.095Z,19.83
2018-03-22T04:55:29.235Z,18.73
2018-03-22T04:56:33.565Z,20.60
2018-03-22T04:57:37.994Z,20.10
2018-03-22T04:58:42.407Z,19.43
2018-03-22T04:59:46.782Z,21.15
2018-03-22T05:00:51.379Z,19.85
2018-03-22T05:01:56.706Z,19.30
2018-03-22T05:03:02.071Z,19.95
2018-03-22T05:04:06.600Z,21.27
2018-03-22T05:05:11.804Z,21.10
2018-03-22T05:06:16.473Z,20.02
2018-03-22T05:07:20.938Z,20.42
2018-03-22T05:08:25.322Z,20.60
2018-03-22T05:09:30.569Z,21.55
2018-03-22T05:10:35.391Z,20.17
2018-03-22T05:11:39.893Z,21.60
2018-03-22T05:12:44.557Z,20.37
2018-03-22T05:13:49.008Z,20.50
2018-03-22T05:14:53.784Z,19.85
2018-03-22T05:15:58.337Z,20.50
2018-03-22T05:17:02.767Z,21.20
2018-03-22T05:18:07.346Z,21.05
2018-03-22T05:19:12.669Z,22.17
2018-03-22T05:20:17.350Z,21.30
2018-03-22T05:21:22.050Z,22.35
2018-03-22T05:22:27.297Z,20.50
2018-03-22T05:23:32.072Z,21.15
2018-03-22T05:24:36.736Z,21.73
2018-03-22T05:25:41.433Z,20.62
2018-03-22T05:26:46.018Z,20.62
2018-03-22T05:27:50.529Z,20.40
2018-03-22T05:28:56.159Z,20.35
2018-03-22T05:30:00.859Z,20.60
2018-03-22T05:31:06.588Z,19.85
2018-03-22T05:32:11.243Z,20.83
2018-03-22T05:33:16.141Z,20.90
2018-03-22T05:34:21.510Z,20.92
2018-03-22T05:35:26.246Z,21.27
2018-03-22T05:36:31.632Z,22.15
2018-03-22T05:37:37.163Z,20.80
2018-03-22T05:38:43.205Z,20.70
2018-03-22T05:39:48.902Z,19.37
2018-03-22T05:40:53.820Z,20.83
2018-03-22T05:41:58.641Z,40.15
2018-03-22T05:43:04.762Z,25.10
2018-03-22T05:44:09.706Z,21.10
2018-03-22T05:45:14.752Z,22.02
2018-03-22T05:46:20.152Z,20.60
2018-03-22T05:47:25.210Z,20.58
2018-03-22T05:48:30.017Z,19.90
2018-03-22T05:49:35.050Z,20.13
2018-03-22T05:50:40.260Z,18.77
2018-03-22T05:51:45.097Z,19.10
2018-03-22T05:52:50.663Z,20.80
2018-03-22T05:53:56.682Z,19.62
2018-03-22T05:55:01.856Z,20.08
2018-03-22T05:56:06.918Z,18.95
2018-03-22T05:57:13.964Z,20.23
2018-03-22T05:58:18.921Z,18.90
2018-03-22T05:59:23.990Z,19.10
2018-03-22T06:00:30.295Z,19.97
2018-03-22T06:01:35.926Z,20.40
2018-03-22T06:02:41.274Z,19.52
2018-03-22T06:03:46.439Z,19.90
2018-03-22T06:04:55.023Z,19.23
2018-03-22T06:06:01.352Z,18.80
2018-03-22T06:07:06.601Z,19.70
2018-03-22T06:08:14.962Z,19.42
2018-03-22T06:10:26.629Z,28.05
2018-03-22T06:11:32.099Z,22.62
2018-03-22T06:12:38.581Z,21.47
2018-03-22T06:13:43.994Z,20.17
2018-03-22T06:14:49.065Z,20.33
2018-03-22T06:15:55.191Z,20.92
2018-03-22T06:17:00.684Z,19.23
2018-03-22T06:18:06.171Z,19.87
2018-03-22T06:19:11.738Z,19.67
2018-03-22T06:20:17.529Z,20.20
2018-03-22T06:21:22.825Z,20.27
2018-03-22T06:22:28.187Z,20.83
2018-03-22T06:23:33.544Z,22.30
2018-03-22T06:24:40.051Z,22.10
2018-03-22T06:25:45.079Z,21.48
2018-03-22T06:26:50.507Z,21.40
2018-03-22T06:27:55.785Z,21.52
2018-03-22T06:29:00.982Z,21.20
2018-03-22T06:30:06.239Z,21.58
2018-03-22T06:31:12.443Z,20.70
2018-03-22T06:32:17.829Z,21.65
2018-03-22T06:33:23.743Z,22.95
2018-03-22T06:34:29.104Z,21.00
2018-03-22T06:35:35.121Z,22.23
2018-03-22T06:36:41.146Z,23.05
2018-03-22T06:37:46.228Z,21.87
2018-03-22T06:38:51.334Z,22.25
2018-03-22T06:39:56.584Z,23.58
2018-03-22T06:41:02.532Z,22.35
2018-03-22T06:42:08.621Z,23.87
2018-03-22T06:43:14.004Z,23.40
2018-03-22T06:44:20.601Z,22.92
2018-03-22T06:45:26.059Z,23.52
2018-03-22T06:46:31.526Z,22.75
2018-03-22T06:47:37.597Z,24.50
2018-03-22T06:48:43.023Z,26.37
2018-03-22T06:49:49.143Z,24.65
2018-03-22T06:50:54.664Z,22.80
2018-03-22T06:52:00.166Z,24.30
2018-03-22T06:53:05.540Z,24.77
2018-03-22T06:54:12.301Z,26.40
2018-03-22T06:55:17.412Z,25.35
2018-03-22T06:56:22.905Z,25.17
2018-03-22T06:57:28.358Z,24.58
2018-03-22T06:58:33.905Z,25.80
2018-03-22T06:59:39.229Z,25.48
2018-03-22T07:00:48.662Z,27.67
2018-03-22T07:01:53.999Z,28.87
2018-03-22T07:02:59.541Z,27.92
2018-03-22T07:04:05.917Z,25.75
2018-03-22T07:05:11.370Z,24.83
2018-03-22T07:06:18.031Z,24.10
2018-03-22T07:07:23.941Z,25.10
2018-03-22T07:08:30.479Z,24.83
2018-03-22T07:09:35.904Z,25.73
2018-03-22T07:10:41.718Z,26.12
2018-03-22T07:11:48.191Z,24.50
2018-03-22T07:12:53.857Z,24.17
2018-03-22T07:13:59.301Z,26.23
2018-03-22T07:15:04.901Z,24.90
2018-03-22T07:16:12.485Z,27.17
2018-03-22T07:17:18.030Z,25.42
2018-03-22T07:18:23.740Z,25.90
2018-03-22T07:19:29.125Z,29.42
2018-03-22T07:20:34.697Z,28.80
2018-03-22T07:21:40.436Z,29.27
2018-03-22T07:22:45.889Z,27.87
2018-03-22T07:23:52.473Z,27.65
2018-03-22T07:24:58.240Z,27.85
2018-03-22T07:26:03.662Z,28.77
2018-03-22T07:27:10.206Z,28.95
2018-03-22T07:28:16.688Z,28.27
2018-03-22T07:29:23.277Z,27.62
2018-03-22T07:30:28.526Z,29.23
2018-03-22T07:31:34.395Z,29.45
2018-03-22T07:32:39.625Z,29.50
2018-03-22T07:33:44.971Z,28.53
2018-03-22T07:34:50.566Z,27.95
2018-03-22T07:35:56.735Z,26.98
2018-03-22T07:37:02.161Z,29.02
2018-03-22T07:38:09.252Z,30.45
2018-03-22T07:39:14.513Z,28.55
2018-03-22T07:40:19.762Z,29.65
2018-03-22T07:41:24.866Z,28.95
2018-03-22T07:42:30.021Z,30.75
2018-03-22T07:43:39.357Z,38.08
2018-03-22T07:44:49.343Z,34.20
2018-03-22T07:45:54.731Z,31.33
2018-03-22T07:47:01.209Z,28.60
2018-03-22T07:48:06.498Z,27.60
2018-03-22T07:49:11.892Z,27.52
2018-03-22T07:50:18.103Z,28.70
2018-03-22T07:51:25.240Z,29.00
2018-03-22T07:52:30.427Z,29.35
2018-03-22T07:53:35.785Z,29.02
2018-03-22T07:54:41.192Z,27.80
2018-03-22T07:55:46.778Z,26.73
2018-03-22T07:56:52.594Z,26.50
2018-03-22T07:57:59.077Z,26.65
2018-03-22T07:59:04.356Z,31.08
2018-03-22T08:00:09.757Z,42.22
2018-03-22T08:01:15.797Z,33.80
2018-03-22T08:02:21.037Z,28.83
2018-03-22T08:03:27.211Z,28.98
2018-03-22T08:04:32.652Z,25.83
2018-03-22T08:05:37.835Z,25.65
2018-03-22T08:06:43.002Z,23.77
2018-03-22T08:07:48.479Z,23.80
2018-03-22T08:08:59.243Z,24.80
2018-03-22T08:10:04.943Z,22.00
2018-03-22T08:11:10.172Z,22.02
2018-03-22T08:12:15.430Z,23.40
2018-03-22T08:13:20.791Z,22.75
2018-03-22T08:14:26.676Z,24.27
2018-03-22T08:15:32.916Z,22.70
2018-03-22T08:16:38.142Z,23.62
2018-03-22T08:17:43.439Z,23.60
2018-03-22T08:18:48.694Z,24.33
2018-03-22T08:19:53.781Z,24.00
2018-03-22T08:20:59.053Z,21.98
2018-03-22T08:22:04.355Z,22.60
2018-03-22T08:23:09.610Z,23.00
2018-03-22T08:24:14.540Z,23.17
2018-03-22T08:25:19.783Z,23.38
2018-03-22T08:26:25.255Z,21.30
2018-03-22T08:27:30.504Z,22.50
2018-03-22T08:28:36.511Z,22.10
2018-03-22T08:29:42.313Z,32.88
2018-03-22T08:30:48.247Z,22.20
2018-03-22T08:31:54.771Z,22.52
2018-03-22T08:32:59.998Z,21.73
2018-03-22T08:34:04.991Z,20.55
2018-03-22T08:35:10.638Z,21.62
2018-03-22T08:36:15.979Z,19.30
2018-03-22T08:37:21.136Z,20.50
2018-03-22T08:38:26.638Z,20.15
2018-03-22T08:39:31.805Z,19.53
2018-03-22T08:40:37.971Z,18.97
2018-03-22T08:41:44.163Z,21.02
2018-03-22T08:44:07.211Z,19.60
2018-03-22T08:45:12.614Z,19.37
2018-03-22T08:46:17.733Z,19.42
2018-03-22T08:47:22.942Z,18.67
2018-03-22T08:48:29.716Z,18.10
2018-03-22T08:49:35.648Z,18.27
2018-03-22T08:50:41.850Z,17.77
2018-03-22T08:51:48.781Z,17.27
2018-03-22T08:52:54.648Z,16.80
2018-03-22T08:54:00.167Z,17.05
2018-03-22T08:55:05.968Z,15.17
2018-03-22T08:56:10.870Z,15.20
2018-03-22T08:57:16.495Z,15.93
2018-03-22T08:58:21.479Z,16.20
2018-03-22T08:59:27.787Z,15.68
2018-03-22T09:00:32.917Z,15.50
2018-03-22T09:01:53.040Z,14.65
2018-03-22T09:02:59.128Z,15.60
2018-03-22T09:04:04.204Z,18.55
2018-03-22T09:05:10.317Z,15.43
2018-03-22T09:06:15.306Z,14.90
2018-03-22T09:07:20.303Z,15.00
2018-03-22T09:08:27.445Z,15.40
2018-03-22T09:09:32.429Z,15.25
2018-03-22T09:10:37.563Z,15.20
2018-03-22T09:11:42.546Z,14.48
2018-03-22T09:12:48.350Z,13.82
2018-03-22T09:13:53.560Z,14.65
2018-03-22T09:14:58.666Z,18.05
2018-03-22T09:16:04.070Z,14.38
2018-03-22T09:17:09.810Z,12.35
2018-03-22T09:18:15.616Z,13.60
2018-03-22T09:19:20.742Z,14.50
2018-03-22T09:20:26.373Z,13.60
2018-03-22T09:21:31.453Z,13.75
2018-03-22T09:22:37.207Z,14.40
2018-03-22T09:23:42.242Z,13.10
2018-03-22T09:24:47.317Z,13.65
2018-03-22T09:25:53.272Z,13.05
2018-03-22T09:27:04.155Z,14.55
2018-03-22T09:28:10.035Z,13.18
2018-03-22T09:29:15.211Z,14.25
2018-03-22T09:30:20.920Z,14.82
2018-03-22T09:31:27.319Z,13.68
2018-03-22T09:32:32.669Z,13.15
2018-03-22T09:33:37.608Z,12.93
2018-03-22T09:34:42.741Z,13.57
2018-03-22T09:35:47.688Z,13.55
2018-03-22T09:36:52.779Z,14.48
2018-03-22T09:37:57.653Z,14.68
2018-03-22T09:39:03.758Z,14.00
2018-03-22T09:40:08.956Z,15.43
2018-03-22T09:41:14.151Z,13.60
2018-03-22T09:42:19.887Z,13.60
2018-03-22T09:43:24.949Z,13.55
2018-03-22T09:44:30.845Z,14.00
2018-03-22T09:45:36.720Z,13.80
2018-03-22T09:46:45.289Z,14.77
2018-03-22T09:47:50.508Z,15.48
2018-03-22T09:48:58.550Z,14.80
2018-03-22T09:50:06.589Z,14.35
2018-03-22T09:51:12.220Z,15.90
2018-03-22T09:52:17.178Z,15.95
2018-03-22T09:53:22.428Z,14.27
2018-03-22T09:54:29.228Z,15.10
2018-03-22T09:55:34.630Z,14.43
2018-03-22T09:56:40.728Z,14.55
2018-03-22T09:57:45.940Z,14.70
2018-03-22T09:58:51.125Z,15.05
2018-03-22T09:59:56.588Z,15.38
2018-03-22T10:01:01.820Z,16.00
2018-03-22T10:02:07.292Z,14.73
2018-03-22T10:03:12.584Z,14.98
2018-03-22T10:04:18.162Z,14.85
2018-03-22T10:05:23.372Z,15.80
2018-03-22T10:06:28.584Z,16.37
2018-03-22T10:07:34.271Z,16.33
2018-03-22T10:08:39.510Z,21.35
2018-03-22T10:09:46.438Z,16.58
2018-03-22T10:10:51.904Z,15.45
2018-03-22T10:11:57.213Z,15.98
2018-03-22T10:13:02.283Z,15.55
2018-03-22T10:14:08.219Z,17.40
2018-03-22T10:15:14.385Z,16.37
2018-03-22T10:16:19.832Z,15.50
2018-03-22T10:17:24.902Z,15.13
2018-03-22T10:18:30.062Z,16.20
2018-03-22T10:19:36.085Z,15.60
2018-03-22T10:20:41.302Z,14.73
2018-03-22T10:21:46.319Z,15.50
2018-03-22T10:22:52.050Z,15.03
2018-03-22T10:23:57.481Z,15.10
2018-03-22T10:25:03.288Z,15.30
2018-03-22T10:26:08.832Z,16.25
2018-03-22T10:27:14.074Z,15.63
2018-03-22T10:28:20.240Z,16.50
2018-03-22T10:29:25.465Z,16.55
2018-03-22T10:30:30.465Z,16.10
2018-03-22T10:31:35.518Z,15.07
2018-03-22T10:32:40.563Z,15.70
2018-03-22T10:33:46.096Z,15.05
2018-03-22T10:34:51.264Z,15.32
2018-03-22T10:35:57.020Z,16.33
2018-03-22T10:37:02.131Z,16.52
2018-03-22T10:38:07.455Z,15.07
2018-03-22T10:39:13.751Z,14.82
2018-03-22T10:40:18.906Z,14.65
2018-03-22T10:41:24.328Z,15.90
2018-03-22T10:42:29.510Z,15.60
2018-03-22T10:43:34.791Z,14.85
2018-03-22T10:44:40.390Z,15.25
2018-03-22T10:45:45.859Z,15.52
2018-03-22T10:46:51.027Z,15.23
2018-03-22T10:47:56.174Z,14.77
2018-03-22T10:49:01.173Z,16.92
2018-03-22T10:50:06.777Z,16.45
2018-03-22T10:51:12.125Z,17.35
2018-03-22T10:52:18.805Z,17.63
2018-03-22T10:53:23.974Z,15.77
2018-03-22T10:54:29.119Z,15.30
2018-03-22T10:55:34.045Z,15.65
2018-03-22T10:56:39.930Z,14.65
2018-03-22T10:57:45.533Z,14.87
2018-03-22T10:58:51.113Z,14.80
2018-03-22T10:59:56.184Z,14.40
2018-03-22T11:01:05.373Z,17.62
2018-03-22T11:02:15.176Z,15.70
2018-03-22T11:03:24.392Z,15.33
2018-03-22T11:04:30.621Z,14.48
2018-03-22T11:05:35.599Z,14.80
2018-03-22T11:06:40.708Z,14.65
2018-03-22T11:07:45.855Z,15.70
2018-03-22T11:08:50.861Z,15.45
2018-03-22T11:09:55.804Z,14.60
2018-03-22T11:11:00.810Z,14.75
2018-03-22T11:12:06.164Z,15.18
2018-03-22T11:13:11.073Z,14.87
2018-03-22T11:14:15.982Z,15.50
2018-03-22T11:15:21.081Z,15.65
2018-03-22T11:16:26.868Z,14.85
2018-03-22T11:17:32.542Z,14.68
2018-03-22T11:18:43.281Z,15.32
2018-03-22T11:19:48.132Z,15.75
2018-03-22T11:20:53.945Z,14.80
2018-03-22T11:21:58.917Z,15.10
2018-03-22T11:23:04.122Z,14.13
2018-03-22T11:24:09.314Z,12.57
2018-03-22T11:25:14.491Z,13.90
2018-03-22T11:26:20.298Z,13.02
2018-03-22T11:27:25.312Z,15.55
2018-03-22T11:28:30.811Z,14.10
2018-03-22T11:29:36.009Z,15.32
2018-03-22T11:30:41.598Z,16.25
2018-03-22T11:31:47.011Z,14.57
2018-03-22T11:32:52.325Z,15.63
2018-03-22T11:33:58.102Z,15.43
2018-03-22T11:35:03.209Z,15.20
2018-03-22T11:36:09.061Z,15.43
2018-03-22T11:37:14.703Z,14.90
2018-03-22T11:38:19.609Z,15.60
2018-03-22T11:39:25.388Z,15.48
2018-03-22T11:41:47.505Z,14.23
2018-03-22T11:42:54.565Z,14.85
2018-03-22T11:43:59.589Z,13.90
2018-03-22T11:45:04.519Z,15.02
2018-03-22T11:46:09.603Z,14.07
2018-03-22T11:47:15.364Z,15.68
2018-03-22T11:48:20.552Z,15.80
2018-03-22T11:49:26.374Z,15.52
2018-03-22T11:50:32.048Z,14.90
2018-03-22T11:51:37.735Z,16.27
2018-03-22T11:52:43.657Z,16.20
2018-03-22T11:53:50.417Z,16.90
2018-03-22T11:54:55.312Z,16.90
2018-03-22T11:56:01.378Z,16.45
2018-03-22T11:57:06.264Z,15.90
2018-03-22T11:58:11.288Z,17.17
2018-03-22T11:59:16.181Z,15.67
2018-03-22T12:00:21.330Z,14.95
2018-03-22T12:01:26.491Z,17.08
2018-03-22T12:02:32.199Z,17.92
2018-03-22T12:03:37.092Z,18.77
2018-03-22T12:04:43.974Z,20.88
2018-03-22T12:05:49.000Z,19.93
2018-03-22T12:06:55.899Z,19.77
2018-03-22T12:08:01.715Z,20.42
2018-03-22T12:09:07.262Z,19.62
2018-03-22T12:10:12.290Z,19.37
2018-03-22T12:11:17.275Z,19.45
2018-03-22T12:12:22.762Z,20.62
2018-03-22T12:13:28.490Z,20.85
2018-03-22T12:14:33.460Z,20.85
2018-03-22T12:15:38.453Z,19.90
2018-03-22T12:16:48.463Z,20.02
2018-03-22T12:17:55.447Z,20.42
2018-03-22T12:19:01.212Z,20.40
2018-03-22T12:20:06.353Z,20.00
2018-03-22T12:21:11.251Z,19.67
2018-03-22T12:22:17.217Z,20.02
2018-03-22T12:23:22.446Z,18.23
2018-03-22T12:24:28.386Z,18.50
2018-03-22T12:25:35.123Z,17.60
2018-03-22T12:26:41.896Z,17.70
2018-03-22T12:27:47.138Z,18.23
2018-03-22T12:28:52.261Z,17.40
2018-03-22T12:29:58.102Z,18.30
2018-03-22T12:31:04.601Z,17.83
2018-03-22T12:32:11.596Z,18.60
2018-03-22T12:33:16.677Z,18.17
2018-03-22T12:34:21.644Z,18.50
2018-03-22T12:35:27.972Z,17.42
2018-03-22T12:36:32.884Z,17.87
2018-03-22T12:37:37.686Z,18.60
2018-03-22T12:38:44.405Z,19.15
2018-03-22T12:39:49.625Z,18.95
2018-03-22T12:40:54.665Z,19.50
2018-03-22T12:41:59.677Z,19.67
2018-03-22T12:43:04.447Z,19.90
2018-03-22T12:44:09.272Z,21.55
2018-03-22T12:45:14.202Z,21.42
2018-03-22T12:46:19.223Z,20.25
2018-03-22T12:47:24.352Z,20.15
2018-03-22T12:48:29.407Z,21.25
2018-03-22T12:49:34.497Z,21.42
2018-03-22T12:50:39.526Z,22.08
2018-03-22T12:51:45.575Z,21.45
2018-03-22T12:52:50.724Z,20.80
2018-03-22T12:53:56.986Z,19.20
2018-03-22T12:55:02.158Z,17.65
2018-03-22T12:56:07.022Z,18.00
2018-03-22T12:57:11.880Z,18.73
2018-03-22T12:58:18.504Z,19.62
2018-03-22T12:59:23.500Z,18.33
2018-03-22T13:00:28.588Z,16.20
2018-03-22T13:01:34.500Z,16.83
2018-03-22T13:02:39.619Z,15.80
2018-03-22T13:03:45.684Z,17.48
2018-03-22T13:04:50.729Z,16.52
2018-03-22T13:05:56.466Z,17.92
2018-03-22T13:07:02.147Z,18.50
2018-03-22T13:08:08.126Z,17.33
2018-03-22T13:09:14.614Z,17.17
2018-03-22T13:10:20.319Z,16.15
2018-03-22T13:11:25.144Z,16.55
2018-03-22T13:12:30.091Z,15.98
2018-03-22T13:13:36.041Z,16.50
2018-03-22T13:14:42.661Z,14.93
2018-03-22T13:15:47.667Z,15.70
2018-03-22T13:16:52.841Z,16.02
2018-03-22T13:17:59.784Z,15.75
2018-03-22T13:19:04.847Z,15.30
2018-03-22T13:20:10.700Z,15.57
2018-03-22T13:21:15.687Z,16.00
2018-03-22T13:22:20.657Z,15.77
2018-03-22T13:23:25.790Z,17.27
2018-03-22T13:24:31.444Z,15.77
2018-03-22T13:25:36.585Z,15.30
2018-03-22T13:26:42.643Z,17.40
2018-03-22T13:27:50.305Z,16.27
2018-03-22T13:28:58.171Z,15.77
2018-03-22T13:30:07.008Z,16.90
2018-03-22T13:31:12.857Z,15.30
2018-03-22T13:32:19.470Z,15.52
2018-03-22T13:33:28.896Z,16.50
2018-03-22T13:34:36.839Z,16.85
2018-03-22T13:35:43.679Z,17.85
2018-03-22T13:36:52.666Z,17.00
2018-03-22T13:38:00.107Z,17.45
2018-03-22T13:39:06.750Z,19.15
2018-03-22T13:40:12.667Z,18.17
2018-03-22T13:41:19.228Z,18.52
2018-03-22T13:42:26.863Z,18.20
2018-03-22T13:43:35.819Z,17.50
2018-03-22T13:44:43.549Z,16.58
2018-03-22T13:45:48.413Z,16.90
2018-03-22T13:46:55.337Z,16.98
2018-03-22T13:48:01.039Z,17.23
2018-03-22T13:49:07.707Z,15.90
2018-03-22T13:50:14.569Z,15.43
2018-03-22T13:51:22.111Z,16.40
2018-03-22T13:52:29.392Z,16.42
2018-03-22T13:53:35.471Z,16.37
2018-03-22T13:54:41.359Z,16.55
2018-03-22T13:55:46.571Z,18.25
2018-03-22T13:56:51.614Z,16.20
2018-03-22T13:57:56.906Z,14.82
2018-03-22T13:59:01.996Z,14.73
2018-03-22T14:00:07.649Z,14.63
2018-03-22T14:01:13.613Z,14.63
2018-03-22T14:02:18.842Z,14.97
2018-03-22T14:03:25.893Z,14.98
2018-03-22T14:04:31.578Z,14.80
2018-03-22T14:05:36.564Z,14.02
2018-03-22T14:06:43.114Z,13.70
2018-03-22T14:07:52.883Z,13.98
2018-03-22T14:08:58.229Z,14.25